sensor_id;sensor_type;location;lat;lon;timestamp;P1;durP1;ratioP1;P2;durP2;ratioP2
20776;SDS011;10548;47.504;8.248;2024-03-06T00:00:26;5.20;;;3.77;;
20776;SDS011;10548;47.504;8.248;2024-03-06T00:02:54;3.13;;;2.10;;
20776;SDS011;10548;47.504;8.248;2024-03-06T00:05:21;2.23;;;1.43;;
20776;SDS011;10548;47.504;8.248;2024-03-06T00:07:49;3.20;;;1.67;;
20776;SDS011;10548;47.504;8.248;2024-03-06T00:10:17;2.20;;;1.60;;
20776;SDS011;10548;47.504;8.248;2024-03-06T00:12:45;1.70;;;1.50;;
20776;SDS011;10548;47.504;8.248;2024-03-06T00:15:12;3.07;;;1.60;;
20776;SDS011;10548;47.504;8.248;2024-03-06T00:17:40;1.90;;;1.73;;
20776;SDS011;10548;47.504;8.248;2024-03-06T00:20:08;2.43;;;1.20;;
20776;SDS011;10548;47.504;8.248;2024-03-06T00:22:37;2.70;;;2.00;;
20776;SDS011;10548;47.504;8.248;2024-03-06T00:25:05;3.03;;;1.70;;
20776;SDS011;10548;47.504;8.248;2024-03-06T00:27:33;1.70;;;1.57;;
20776;SDS011;10548;47.504;8.248;2024-03-06T00:30:01;2.23;;;1.80;;
20776;SDS011;10548;47.504;8.248;2024-03-06T00:32:29;2.00;;;1.57;;
20776;SDS011;10548;47.504;8.248;2024-03-06T00:34:57;1.77;;;1.57;;
20776;SDS011;10548;47.504;8.248;2024-03-06T00:37:24;2.47;;;1.60;;
20776;SDS011;10548;47.504;8.248;2024-03-06T00:39:52;4.07;;;2.70;;
20776;SDS011;10548;47.504;8.248;2024-03-06T00:42:20;3.60;;;2.37;;
20776;SDS011;10548;47.504;8.248;2024-03-06T00:44:48;3.93;;;2.43;;
20776;SDS011;10548;47.504;8.248;2024-03-06T00:47:15;2.77;;;1.97;;
20776;SDS011;10548;47.504;8.248;2024-03-06T00:49:43;6.87;;;3.23;;
20776;SDS011;10548;47.504;8.248;2024-03-06T00:52:11;1.53;;;0.90;;
20776;SDS011;10548;47.504;8.248;2024-03-06T00:54:39;3.03;;;1.27;;
20776;SDS011;10548;47.504;8.248;2024-03-06T00:57:06;2.50;;;1.30;;
20776;SDS011;10548;47.504;8.248;2024-03-06T00:59:34;2.93;;;1.63;;
20776;SDS011;10548;47.504;8.248;2024-03-06T01:02:02;2.70;;;1.73;;
20776;SDS011;10548;47.504;8.248;2024-03-06T01:04:30;2.53;;;2.00;;
20776;SDS011;10548;47.504;8.248;2024-03-06T01:06:57;2.73;;;1.70;;
20776;SDS011;10548;47.504;8.248;2024-03-06T01:09:25;4.17;;;1.83;;
20776;SDS011;10548;47.504;8.248;2024-03-06T01:11:53;5.30;;;3.87;;
20776;SDS011;10548;47.504;8.248;2024-03-06T01:14:21;5.90;;;3.10;;
20776;SDS011;10548;47.504;8.248;2024-03-06T01:16:49;4.63;;;3.27;;
20776;SDS011;10548;47.504;8.248;2024-03-06T01:19:16;3.00;;;2.53;;
20776;SDS011;10548;47.504;8.248;2024-03-06T01:21:44;5.90;;;3.43;;
20776;SDS011;10548;47.504;8.248;2024-03-06T01:24:12;3.93;;;3.30;;
20776;SDS011;10548;47.504;8.248;2024-03-06T01:26:40;5.20;;;3.83;;
20776;SDS011;10548;47.504;8.248;2024-03-06T01:29:08;2.73;;;1.93;;
20776;SDS011;10548;47.504;8.248;2024-03-06T01:31:36;2.90;;;2.53;;
20776;SDS011;10548;47.504;8.248;2024-03-06T01:34:04;2.70;;;2.27;;
20776;SDS011;10548;47.504;8.248;2024-03-06T01:36:31;4.50;;;3.07;;
20776;SDS011;10548;47.504;8.248;2024-03-06T01:38:59;4.43;;;3.73;;
20776;SDS011;10548;47.504;8.248;2024-03-06T01:41:28;3.17;;;2.70;;
20776;SDS011;10548;47.504;8.248;2024-03-06T01:43:56;5.53;;;4.20;;
20776;SDS011;10548;47.504;8.248;2024-03-06T01:46:23;5.93;;;4.10;;
20776;SDS011;10548;47.504;8.248;2024-03-06T01:48:51;5.50;;;4.10;;
20776;SDS011;10548;47.504;8.248;2024-03-06T01:51:19;4.47;;;3.60;;
20776;SDS011;10548;47.504;8.248;2024-03-06T01:53:47;4.27;;;3.87;;
20776;SDS011;10548;47.504;8.248;2024-03-06T01:56:15;3.53;;;2.53;;
20776;SDS011;10548;47.504;8.248;2024-03-06T01:58:47;3.70;;;2.90;;
20776;SDS011;10548;47.504;8.248;2024-03-06T02:01:15;3.17;;;2.67;;
20776;SDS011;10548;47.504;8.248;2024-03-06T02:03:43;4.03;;;2.47;;
20776;SDS011;10548;47.504;8.248;2024-03-06T02:06:12;3.20;;;2.30;;
20776;SDS011;10548;47.504;8.248;2024-03-06T02:08:41;3.17;;;2.80;;
20776;SDS011;10548;47.504;8.248;2024-03-06T02:11:09;2.80;;;2.10;;
20776;SDS011;10548;47.504;8.248;2024-03-06T02:13:38;2.13;;;1.93;;
20776;SDS011;10548;47.504;8.248;2024-03-06T02:16:07;3.87;;;1.70;;
20776;SDS011;10548;47.504;8.248;2024-03-06T02:18:34;3.77;;;1.67;;
20776;SDS011;10548;47.504;8.248;2024-03-06T02:21:03;2.40;;;2.10;;
20776;SDS011;10548;47.504;8.248;2024-03-06T02:23:34;3.07;;;2.67;;
20776;SDS011;10548;47.504;8.248;2024-03-06T02:26:01;5.77;;;2.90;;
20776;SDS011;10548;47.504;8.248;2024-03-06T02:28:29;3.23;;;2.60;;
20776;SDS011;10548;47.504;8.248;2024-03-06T02:30:57;2.53;;;2.10;;
20776;SDS011;10548;47.504;8.248;2024-03-06T02:33:25;2.37;;;2.10;;
20776;SDS011;10548;47.504;8.248;2024-03-06T02:35:53;4.03;;;2.13;;
20776;SDS011;10548;47.504;8.248;2024-03-06T02:38:21;1.60;;;1.50;;
20776;SDS011;10548;47.504;8.248;2024-03-06T02:40:48;2.40;;;2.20;;
20776;SDS011;10548;47.504;8.248;2024-03-06T02:43:16;3.20;;;2.03;;
20776;SDS011;10548;47.504;8.248;2024-03-06T02:45:44;2.50;;;1.80;;
20776;SDS011;10548;47.504;8.248;2024-03-06T02:48:12;2.10;;;1.90;;
20776;SDS011;10548;47.504;8.248;2024-03-06T02:50:39;2.10;;;1.73;;
20776;SDS011;10548;47.504;8.248;2024-03-06T02:53:07;1.87;;;1.67;;
20776;SDS011;10548;47.504;8.248;2024-03-06T02:55:35;2.37;;;2.17;;
20776;SDS011;10548;47.504;8.248;2024-03-06T02:58:03;2.77;;;1.80;;
20776;SDS011;10548;47.504;8.248;2024-03-06T03:00:30;2.33;;;2.03;;
20776;SDS011;10548;47.504;8.248;2024-03-06T03:02:58;5.90;;;4.50;;
20776;SDS011;10548;47.504;8.248;2024-03-06T03:05:26;4.13;;;2.93;;
20776;SDS011;10548;47.504;8.248;2024-03-06T03:07:54;3.63;;;3.13;;
20776;SDS011;10548;47.504;8.248;2024-03-06T03:10:22;3.87;;;3.47;;
20776;SDS011;10548;47.504;8.248;2024-03-06T03:12:51;4.70;;;4.00;;
20776;SDS011;10548;47.504;8.248;2024-03-06T03:15:19;6.83;;;3.40;;
20776;SDS011;10548;47.504;8.248;2024-03-06T03:17:47;3.70;;;3.10;;
20776;SDS011;10548;47.504;8.248;2024-03-06T03:20:15;3.37;;;2.97;;
20776;SDS011;10548;47.504;8.248;2024-03-06T03:22:43;3.20;;;2.63;;
20776;SDS011;10548;47.504;8.248;2024-03-06T03:25:11;2.97;;;2.67;;
20776;SDS011;10548;47.504;8.248;2024-03-06T03:27:39;3.27;;;2.80;;
20776;SDS011;10548;47.504;8.248;2024-03-06T03:30:07;2.60;;;2.40;;
20776;SDS011;10548;47.504;8.248;2024-03-06T03:32:35;4.73;;;3.97;;
20776;SDS011;10548;47.504;8.248;2024-03-06T03:35:04;5.47;;;3.60;;
20776;SDS011;10548;47.504;8.248;2024-03-06T03:37:32;5.03;;;3.77;;
20776;SDS011;10548;47.504;8.248;2024-03-06T03:40:00;5.37;;;3.90;;
20776;SDS011;10548;47.504;8.248;2024-03-06T03:42:28;4.40;;;3.60;;
20776;SDS011;10548;47.504;8.248;2024-03-06T03:44:55;4.63;;;3.60;;
20776;SDS011;10548;47.504;8.248;2024-03-06T03:47:23;6.33;;;4.43;;
20776;SDS011;10548;47.504;8.248;2024-03-06T03:49:51;5.67;;;4.10;;
20776;SDS011;10548;47.504;8.248;2024-03-06T03:52:35;4.87;;;3.53;;
20776;SDS011;10548;47.504;8.248;2024-03-06T03:55:03;4.20;;;3.80;;
20776;SDS011;10548;47.504;8.248;2024-03-06T03:57:31;4.73;;;3.57;;
20776;SDS011;10548;47.504;8.248;2024-03-06T03:59:58;6.20;;;3.50;;
20776;SDS011;10548;47.504;8.248;2024-03-06T04:02:26;8.27;;;6.00;;
20776;SDS011;10548;47.504;8.248;2024-03-06T04:04:54;5.50;;;4.13;;
20776;SDS011;10548;47.504;8.248;2024-03-06T04:07:21;7.60;;;4.63;;
20776;SDS011;10548;47.504;8.248;2024-03-06T04:09:49;7.03;;;5.13;;
20776;SDS011;10548;47.504;8.248;2024-03-06T04:12:17;6.53;;;4.60;;
20776;SDS011;10548;47.504;8.248;2024-03-06T04:14:45;6.03;;;4.80;;
20776;SDS011;10548;47.504;8.248;2024-03-06T04:17:12;6.23;;;4.63;;
20776;SDS011;10548;47.504;8.248;2024-03-06T04:19:40;4.97;;;4.13;;
20776;SDS011;10548;47.504;8.248;2024-03-06T04:22:08;6.30;;;4.90;;
20776;SDS011;10548;47.504;8.248;2024-03-06T04:24:36;5.40;;;4.30;;
20776;SDS011;10548;47.504;8.248;2024-03-06T04:27:03;5.50;;;4.07;;
20776;SDS011;10548;47.504;8.248;2024-03-06T04:29:31;5.20;;;4.30;;
20776;SDS011;10548;47.504;8.248;2024-03-06T04:31:59;5.30;;;4.43;;
20776;SDS011;10548;47.504;8.248;2024-03-06T04:34:26;5.53;;;4.20;;
20776;SDS011;10548;47.504;8.248;2024-03-06T04:36:54;5.73;;;4.63;;
20776;SDS011;10548;47.504;8.248;2024-03-06T04:39:25;4.77;;;4.20;;
20776;SDS011;10548;47.504;8.248;2024-03-06T04:41:53;5.03;;;3.97;;
20776;SDS011;10548;47.504;8.248;2024-03-06T04:44:21;5.57;;;4.40;;
20776;SDS011;10548;47.504;8.248;2024-03-06T04:46:51;6.47;;;5.30;;
20776;SDS011;10548;47.504;8.248;2024-03-06T04:49:19;6.13;;;4.90;;
20776;SDS011;10548;47.504;8.248;2024-03-06T04:51:47;6.90;;;4.77;;
20776;SDS011;10548;47.504;8.248;2024-03-06T04:54:15;7.30;;;5.47;;
20776;SDS011;10548;47.504;8.248;2024-03-06T04:56:42;5.60;;;4.30;;
20776;SDS011;10548;47.504;8.248;2024-03-06T04:59:10;9.63;;;5.73;;
20776;SDS011;10548;47.504;8.248;2024-03-06T05:01:38;7.73;;;5.67;;
20776;SDS011;10548;47.504;8.248;2024-03-06T05:04:05;6.27;;;5.07;;
20776;SDS011;10548;47.504;8.248;2024-03-06T05:06:47;7.47;;;5.67;;
20776;SDS011;10548;47.504;8.248;2024-03-06T05:09:29;6.20;;;4.87;;
20776;SDS011;10548;47.504;8.248;2024-03-06T05:12:10;6.83;;;5.50;;
20776;SDS011;10548;47.504;8.248;2024-03-06T05:14:52;5.73;;;4.73;;
20776;SDS011;10548;47.504;8.248;2024-03-06T05:17:34;8.23;;;5.43;;
20776;SDS011;10548;47.504;8.248;2024-03-06T05:20:15;6.13;;;4.93;;
20776;SDS011;10548;47.504;8.248;2024-03-06T05:22:57;9.83;;;5.73;;
20776;SDS011;10548;47.504;8.248;2024-03-06T05:25:38;8.20;;;5.60;;
20776;SDS011;10548;47.504;8.248;2024-03-06T05:28:20;11.20;;;5.30;;
20776;SDS011;10548;47.504;8.248;2024-03-06T05:31:13;11.60;;;6.33;;
20776;SDS011;10548;47.504;8.248;2024-03-06T05:33:56;6.87;;;4.97;;
20776;SDS011;10548;47.504;8.248;2024-03-06T05:36:38;6.87;;;5.13;;
20776;SDS011;10548;47.504;8.248;2024-03-06T05:39:19;7.00;;;5.23;;
20776;SDS011;10548;47.504;8.248;2024-03-06T05:42:01;6.70;;;5.00;;
20776;SDS011;10548;47.504;8.248;2024-03-06T05:44:45;7.77;;;4.87;;
20776;SDS011;10548;47.504;8.248;2024-03-06T05:47:29;8.10;;;5.70;;
20776;SDS011;10548;47.504;8.248;2024-03-06T05:50:11;9.57;;;5.73;;
20776;SDS011;10548;47.504;8.248;2024-03-06T05:52:53;5.80;;;4.47;;
20776;SDS011;10548;47.504;8.248;2024-03-06T05:55:35;6.50;;;4.67;;
20776;SDS011;10548;47.504;8.248;2024-03-06T05:58:16;7.33;;;5.27;;
20776;SDS011;10548;47.504;8.248;2024-03-06T06:00:47;9.97;;;5.80;;
20776;SDS011;10548;47.504;8.248;2024-03-06T06:03:15;8.57;;;5.77;;
20776;SDS011;10548;47.504;8.248;2024-03-06T06:05:44;8.75;;;6.70;;
20776;SDS011;10548;47.504;8.248;2024-03-06T06:08:12;12.60;;;7.47;;
20776;SDS011;10548;47.504;8.248;2024-03-06T06:10:39;12.40;;;7.50;;
20776;SDS011;10548;47.504;8.248;2024-03-06T06:13:07;10.37;;;6.70;;
20776;SDS011;10548;47.504;8.248;2024-03-06T06:15:35;9.30;;;6.33;;
20776;SDS011;10548;47.504;8.248;2024-03-06T06:18:02;8.33;;;6.17;;
20776;SDS011;10548;47.504;8.248;2024-03-06T06:20:30;9.20;;;6.07;;
20776;SDS011;10548;47.504;8.248;2024-03-06T06:22:58;8.87;;;6.10;;
20776;SDS011;10548;47.504;8.248;2024-03-06T06:25:26;7.70;;;6.03;;
20776;SDS011;10548;47.504;8.248;2024-03-06T06:27:53;7.53;;;5.23;;
20776;SDS011;10548;47.504;8.248;2024-03-06T06:30:21;8.63;;;5.97;;
20776;SDS011;10548;47.504;8.248;2024-03-06T06:32:49;10.43;;;6.50;;
20776;SDS011;10548;47.504;8.248;2024-03-06T06:35:17;6.23;;;4.80;;
20776;SDS011;10548;47.504;8.248;2024-03-06T06:37:45;8.67;;;5.50;;
20776;SDS011;10548;47.504;8.248;2024-03-06T06:40:12;7.57;;;5.20;;
20776;SDS011;10548;47.504;8.248;2024-03-06T06:42:44;7.97;;;5.73;;
20776;SDS011;10548;47.504;8.248;2024-03-06T06:45:17;10.67;;;6.33;;
20776;SDS011;10548;47.504;8.248;2024-03-06T06:47:45;9.50;;;6.47;;
20776;SDS011;10548;47.504;8.248;2024-03-06T06:50:13;8.30;;;6.07;;
20776;SDS011;10548;47.504;8.248;2024-03-06T06:52:41;7.27;;;5.40;;
20776;SDS011;10548;47.504;8.248;2024-03-06T06:55:09;7.30;;;5.60;;
20776;SDS011;10548;47.504;8.248;2024-03-06T06:57:38;6.97;;;4.97;;
20776;SDS011;10548;47.504;8.248;2024-03-06T07:00:06;7.97;;;5.80;;
20776;SDS011;10548;47.504;8.248;2024-03-06T07:02:38;8.40;;;5.00;;
20776;SDS011;10548;47.504;8.248;2024-03-06T07:05:06;6.90;;;5.07;;
20776;SDS011;10548;47.504;8.248;2024-03-06T07:07:35;7.10;;;4.97;;
20776;SDS011;10548;47.504;8.248;2024-03-06T07:10:03;7.13;;;5.10;;
20776;SDS011;10548;47.504;8.248;2024-03-06T07:12:31;9.17;;;6.00;;
20776;SDS011;10548;47.504;8.248;2024-03-06T07:14:59;7.77;;;5.50;;
20776;SDS011;10548;47.504;8.248;2024-03-06T07:17:26;7.67;;;5.47;;
20776;SDS011;10548;47.504;8.248;2024-03-06T07:19:54;7.87;;;5.80;;
20776;SDS011;10548;47.504;8.248;2024-03-06T07:22:22;9.50;;;6.00;;
20776;SDS011;10548;47.504;8.248;2024-03-06T07:24:50;8.53;;;6.00;;
20776;SDS011;10548;47.504;8.248;2024-03-06T07:27:18;7.43;;;5.10;;
20776;SDS011;10548;47.504;8.248;2024-03-06T07:29:45;7.80;;;5.40;;
20776;SDS011;10548;47.504;8.248;2024-03-06T07:32:13;6.80;;;4.87;;
20776;SDS011;10548;47.504;8.248;2024-03-06T07:34:41;6.47;;;5.07;;
20776;SDS011;10548;47.504;8.248;2024-03-06T07:37:09;6.70;;;5.10;;
20776;SDS011;10548;47.504;8.248;2024-03-06T07:39:36;5.17;;;4.30;;
20776;SDS011;10548;47.504;8.248;2024-03-06T07:42:05;7.67;;;5.17;;
20776;SDS011;10548;47.504;8.248;2024-03-06T07:44:33;6.17;;;4.70;;
20776;SDS011;10548;47.504;8.248;2024-03-06T07:47:02;5.47;;;4.40;;
20776;SDS011;10548;47.504;8.248;2024-03-06T07:49:30;6.33;;;4.93;;
20776;SDS011;10548;47.504;8.248;2024-03-06T07:51:58;8.63;;;4.50;;
20776;SDS011;10548;47.504;8.248;2024-03-06T07:54:25;7.43;;;4.60;;
20776;SDS011;10548;47.504;8.248;2024-03-06T07:56:53;6.50;;;4.80;;
20776;SDS011;10548;47.504;8.248;2024-03-06T07:59:21;8.60;;;6.07;;
20776;SDS011;10548;47.504;8.248;2024-03-06T08:01:49;6.80;;;5.17;;
20776;SDS011;10548;47.504;8.248;2024-03-06T08:04:16;8.03;;;5.97;;
20776;SDS011;10548;47.504;8.248;2024-03-06T08:06:44;6.73;;;5.10;;
20776;SDS011;10548;47.504;8.248;2024-03-06T08:09:13;8.27;;;5.50;;
20776;SDS011;10548;47.504;8.248;2024-03-06T08:11:43;7.33;;;5.47;;
20776;SDS011;10548;47.504;8.248;2024-03-06T08:14:11;5.43;;;4.70;;
20776;SDS011;10548;47.504;8.248;2024-03-06T08:16:41;5.67;;;4.80;;
20776;SDS011;10548;47.504;8.248;2024-03-06T08:19:09;6.53;;;5.27;;
20776;SDS011;10548;47.504;8.248;2024-03-06T08:21:36;5.67;;;4.70;;
20776;SDS011;10548;47.504;8.248;2024-03-06T08:24:04;5.53;;;4.67;;
20776;SDS011;10548;47.504;8.248;2024-03-06T08:26:32;8.63;;;4.73;;
20776;SDS011;10548;47.504;8.248;2024-03-06T08:29:00;5.93;;;5.20;;
20776;SDS011;10548;47.504;8.248;2024-03-06T08:31:27;8.60;;;6.03;;
20776;SDS011;10548;47.504;8.248;2024-03-06T08:33:55;7.63;;;5.17;;
20776;SDS011;10548;47.504;8.248;2024-03-06T08:36:23;8.73;;;6.33;;
20776;SDS011;10548;47.504;8.248;2024-03-06T08:38:51;6.97;;;5.93;;
20776;SDS011;10548;47.504;8.248;2024-03-06T08:41:18;9.10;;;5.63;;
20776;SDS011;10548;47.504;8.248;2024-03-06T08:43:47;8.23;;;6.47;;
20776;SDS011;10548;47.504;8.248;2024-03-06T08:46:15;9.43;;;5.93;;
20776;SDS011;10548;47.504;8.248;2024-03-06T08:48:42;8.60;;;6.43;;
20776;SDS011;10548;47.504;8.248;2024-03-06T08:51:11;6.43;;;5.30;;
20776;SDS011;10548;47.504;8.248;2024-03-06T08:53:39;8.53;;;5.97;;
20776;SDS011;10548;47.504;8.248;2024-03-06T08:56:07;11.30;;;5.77;;
20776;SDS011;10548;47.504;8.248;2024-03-06T08:58:35;5.50;;;4.93;;
20776;SDS011;10548;47.504;8.248;2024-03-06T09:01:03;7.03;;;5.67;;
20776;SDS011;10548;47.504;8.248;2024-03-06T09:03:31;7.43;;;5.73;;
20776;SDS011;10548;47.504;8.248;2024-03-06T09:05:59;8.27;;;5.50;;
20776;SDS011;10548;47.504;8.248;2024-03-06T09:08:27;7.07;;;5.40;;
20776;SDS011;10548;47.504;8.248;2024-03-06T09:10:54;8.67;;;6.37;;
20776;SDS011;10548;47.504;8.248;2024-03-06T09:13:26;8.63;;;6.67;;
20776;SDS011;10548;47.504;8.248;2024-03-06T09:15:53;8.20;;;6.20;;
20776;SDS011;10548;47.504;8.248;2024-03-06T09:18:21;6.50;;;5.37;;
20776;SDS011;10548;47.504;8.248;2024-03-06T09:20:49;7.23;;;6.07;;
20776;SDS011;10548;47.504;8.248;2024-03-06T09:23:16;7.27;;;5.77;;
20776;SDS011;10548;47.504;8.248;2024-03-06T09:25:44;8.53;;;6.77;;
20776;SDS011;10548;47.504;8.248;2024-03-06T09:28:12;8.57;;;6.57;;
20776;SDS011;10548;47.504;8.248;2024-03-06T09:30:40;13.33;;;7.47;;
20776;SDS011;10548;47.504;8.248;2024-03-06T09:33:08;10.03;;;6.47;;
20776;SDS011;10548;47.504;8.248;2024-03-06T09:35:36;9.17;;;6.83;;
20776;SDS011;10548;47.504;8.248;2024-03-06T09:38:04;6.90;;;5.63;;
20776;SDS011;10548;47.504;8.248;2024-03-06T09:40:32;10.70;;;7.17;;
20776;SDS011;10548;47.504;8.248;2024-03-06T09:42:59;8.23;;;6.30;;
20776;SDS011;10548;47.504;8.248;2024-03-06T09:45:27;7.93;;;6.33;;
20776;SDS011;10548;47.504;8.248;2024-03-06T09:47:55;10.67;;;6.97;;
20776;SDS011;10548;47.504;8.248;2024-03-06T09:50:23;10.93;;;6.50;;
20776;SDS011;10548;47.504;8.248;2024-03-06T09:52:53;6.80;;;5.50;;
20776;SDS011;10548;47.504;8.248;2024-03-06T09:55:22;7.43;;;5.90;;
20776;SDS011;10548;47.504;8.248;2024-03-06T09:57:50;10.97;;;7.87;;
20776;SDS011;10548;47.504;8.248;2024-03-06T10:00:18;9.13;;;6.97;;
20776;SDS011;10548;47.504;8.248;2024-03-06T10:02:50;8.90;;;6.60;;
20776;SDS011;10548;47.504;8.248;2024-03-06T10:05:22;9.33;;;6.80;;
20776;SDS011;10548;47.504;8.248;2024-03-06T10:07:50;8.67;;;6.50;;
20776;SDS011;10548;47.504;8.248;2024-03-06T10:10:19;9.57;;;6.80;;
20776;SDS011;10548;47.504;8.248;2024-03-06T10:12:49;12.15;;;8.20;;
20776;SDS011;10548;47.504;8.248;2024-03-06T10:15:17;10.63;;;7.63;;
20776;SDS011;10548;47.504;8.248;2024-03-06T10:17:45;8.40;;;6.63;;
20776;SDS011;10548;47.504;8.248;2024-03-06T10:20:23;8.60;;;5.83;;
20776;SDS011;10548;47.504;8.248;2024-03-06T10:22:51;8.90;;;6.43;;
20776;SDS011;10548;47.504;8.248;2024-03-06T10:25:24;8.77;;;6.07;;
20776;SDS011;10548;47.504;8.248;2024-03-06T10:28:06;6.67;;;5.23;;
20776;SDS011;10548;47.504;8.248;2024-03-06T10:30:35;6.20;;;4.87;;
20776;SDS011;10548;47.504;8.248;2024-03-06T10:33:03;7.07;;;4.90;;
20776;SDS011;10548;47.504;8.248;2024-03-06T10:35:32;6.47;;;4.70;;
20776;SDS011;10548;47.504;8.248;2024-03-06T10:38:01;7.00;;;4.63;;
20776;SDS011;10548;47.504;8.248;2024-03-06T10:40:32;7.00;;;5.40;;
20776;SDS011;10548;47.504;8.248;2024-03-06T10:43:00;7.23;;;5.63;;
20776;SDS011;10548;47.504;8.248;2024-03-06T10:45:47;6.40;;;5.03;;
20776;SDS011;10548;47.504;8.248;2024-03-06T10:48:16;6.97;;;4.77;;
20776;SDS011;10548;47.504;8.248;2024-03-06T10:50:45;9.17;;;4.97;;
20776;SDS011;10548;47.504;8.248;2024-03-06T10:53:14;10.73;;;4.77;;
20776;SDS011;10548;47.504;8.248;2024-03-06T10:55:49;8.50;;;5.73;;
20776;SDS011;10548;47.504;8.248;2024-03-06T10:58:17;9.97;;;6.30;;
20776;SDS011;10548;47.504;8.248;2024-03-06T11:00:46;7.07;;;5.30;;
20776;SDS011;10548;47.504;8.248;2024-03-06T11:03:14;6.37;;;4.93;;
20776;SDS011;10548;47.504;8.248;2024-03-06T11:05:43;5.93;;;4.30;;
20776;SDS011;10548;47.504;8.248;2024-03-06T11:08:15;7.00;;;5.60;;
20776;SDS011;10548;47.504;8.248;2024-03-06T11:10:44;6.33;;;5.00;;
20776;SDS011;10548;47.504;8.248;2024-03-06T11:13:22;7.70;;;5.57;;
20776;SDS011;10548;47.504;8.248;2024-03-06T11:15:51;6.30;;;4.80;;
20776;SDS011;10548;47.504;8.248;2024-03-06T11:24:15;5.73;;;4.57;;
20776;SDS011;10548;47.504;8.248;2024-03-06T11:26:46;5.83;;;4.60;;
20776;SDS011;10548;47.504;8.248;2024-03-06T11:29:17;6.87;;;4.83;;
20776;SDS011;10548;47.504;8.248;2024-03-06T11:31:59;6.70;;;4.93;;
20776;SDS011;10548;47.504;8.248;2024-03-06T11:34:28;4.30;;;3.70;;
20776;SDS011;10548;47.504;8.248;2024-03-06T11:36:57;7.27;;;5.33;;
20776;SDS011;10548;47.504;8.248;2024-03-06T11:39:28;5.50;;;4.40;;
20776;SDS011;10548;47.504;8.248;2024-03-06T11:42:00;6.57;;;4.67;;
20776;SDS011;10548;47.504;8.248;2024-03-06T11:44:28;6.37;;;4.90;;
20776;SDS011;10548;47.504;8.248;2024-03-06T11:46:59;6.70;;;4.60;;
20776;SDS011;10548;47.504;8.248;2024-03-06T11:49:28;6.40;;;4.50;;
20776;SDS011;10548;47.504;8.248;2024-03-06T11:51:59;5.17;;;4.07;;
20776;SDS011;10548;47.504;8.248;2024-03-06T11:54:27;5.33;;;4.67;;
20776;SDS011;10548;47.504;8.248;2024-03-06T11:56:57;6.27;;;4.27;;
20776;SDS011;10548;47.504;8.248;2024-03-06T11:59:26;5.80;;;4.50;;
20776;SDS011;10548;47.504;8.248;2024-03-06T12:01:54;8.23;;;4.70;;
20776;SDS011;10548;47.504;8.248;2024-03-06T12:04:22;6.30;;;4.73;;
20776;SDS011;10548;47.504;8.248;2024-03-06T12:06:51;6.07;;;4.50;;
20776;SDS011;10548;47.504;8.248;2024-03-06T12:09:19;6.73;;;4.83;;
20776;SDS011;10548;47.504;8.248;2024-03-06T12:11:46;5.97;;;4.90;;
20776;SDS011;10548;47.504;8.248;2024-03-06T12:14:16;5.50;;;4.43;;
20776;SDS011;10548;47.504;8.248;2024-03-06T12:17:05;6.10;;;4.47;;
20776;SDS011;10548;47.504;8.248;2024-03-06T12:19:35;5.70;;;4.10;;
20776;SDS011;10548;47.504;8.248;2024-03-06T12:22:03;7.73;;;4.93;;
20776;SDS011;10548;47.504;8.248;2024-03-06T12:24:35;6.23;;;4.60;;
20776;SDS011;10548;47.504;8.248;2024-03-06T12:27:03;7.10;;;4.97;;
20776;SDS011;10548;47.504;8.248;2024-03-06T12:29:31;6.23;;;4.97;;
20776;SDS011;10548;47.504;8.248;2024-03-06T12:31:59;6.13;;;5.33;;
20776;SDS011;10548;47.504;8.248;2024-03-06T12:34:27;6.23;;;5.47;;
20776;SDS011;10548;47.504;8.248;2024-03-06T12:37:07;7.17;;;4.97;;
20776;SDS011;10548;47.504;8.248;2024-03-06T12:39:35;7.40;;;5.17;;
20776;SDS011;10548;47.504;8.248;2024-03-06T12:42:08;8.33;;;6.30;;
20776;SDS011;10548;47.504;8.248;2024-03-06T12:44:35;8.20;;;6.37;;
20776;SDS011;10548;47.504;8.248;2024-03-06T12:47:03;7.73;;;6.00;;
20776;SDS011;10548;47.504;8.248;2024-03-06T12:49:31;8.83;;;6.27;;
20776;SDS011;10548;47.504;8.248;2024-03-06T12:51:59;7.37;;;5.23;;
20776;SDS011;10548;47.504;8.248;2024-03-06T12:54:31;9.47;;;6.50;;
20776;SDS011;10548;47.504;8.248;2024-03-06T12:56:58;9.17;;;5.97;;
20776;SDS011;10548;47.504;8.248;2024-03-06T12:59:26;7.50;;;5.47;;
20776;SDS011;10548;47.504;8.248;2024-03-06T13:01:54;8.13;;;5.63;;
20776;SDS011;10548;47.504;8.248;2024-03-06T13:04:22;6.93;;;5.93;;
20776;SDS011;10548;47.504;8.248;2024-03-06T13:06:49;8.00;;;6.80;;
20776;SDS011;10548;47.504;8.248;2024-03-06T13:09:17;6.67;;;5.60;;
20776;SDS011;10548;47.504;8.248;2024-03-06T13:11:45;8.27;;;5.87;;
20776;SDS011;10548;47.504;8.248;2024-03-06T13:14:13;6.33;;;5.17;;
20776;SDS011;10548;47.504;8.248;2024-03-06T13:16:40;7.60;;;5.57;;
20776;SDS011;10548;47.504;8.248;2024-03-06T13:19:08;7.97;;;5.90;;
20776;SDS011;10548;47.504;8.248;2024-03-06T13:21:38;6.47;;;5.40;;
20776;SDS011;10548;47.504;8.248;2024-03-06T13:24:05;6.40;;;5.30;;
20776;SDS011;10548;47.504;8.248;2024-03-06T13:26:36;6.60;;;5.30;;
20776;SDS011;10548;47.504;8.248;2024-03-06T13:29:04;8.57;;;6.30;;
20776;SDS011;10548;47.504;8.248;2024-03-06T13:31:32;9.00;;;6.10;;
20776;SDS011;10548;47.504;8.248;2024-03-06T13:34:00;6.97;;;5.23;;
20776;SDS011;10548;47.504;8.248;2024-03-06T13:36:29;6.53;;;5.60;;
20776;SDS011;10548;47.504;8.248;2024-03-06T13:38:57;6.57;;;4.90;;
20776;SDS011;10548;47.504;8.248;2024-03-06T13:41:25;7.80;;;5.40;;
20776;SDS011;10548;47.504;8.248;2024-03-06T13:43:55;7.93;;;6.07;;
20776;SDS011;10548;47.504;8.248;2024-03-06T13:46:22;7.63;;;5.90;;
20776;SDS011;10548;47.504;8.248;2024-03-06T13:48:50;8.57;;;7.10;;
20776;SDS011;10548;47.504;8.248;2024-03-06T13:51:18;7.27;;;5.83;;
20776;SDS011;10548;47.504;8.248;2024-03-06T13:53:46;15.83;;;12.07;;
20776;SDS011;10548;47.504;8.248;2024-03-06T13:56:14;7.40;;;5.83;;
20776;SDS011;10548;47.504;8.248;2024-03-06T13:58:42;6.93;;;5.20;;
20776;SDS011;10548;47.504;8.248;2024-03-06T14:01:10;4.93;;;4.10;;
20776;SDS011;10548;47.504;8.248;2024-03-06T14:03:39;7.00;;;5.90;;
20776;SDS011;10548;47.504;8.248;2024-03-06T14:06:07;6.60;;;5.80;;
20776;SDS011;10548;47.504;8.248;2024-03-06T14:08:36;8.60;;;5.50;;
20776;SDS011;10548;47.504;8.248;2024-03-06T14:11:06;6.30;;;5.17;;
20776;SDS011;10548;47.504;8.248;2024-03-06T14:13:34;11.10;;;7.60;;
20776;SDS011;10548;47.504;8.248;2024-03-06T14:16:02;6.77;;;5.33;;
20776;SDS011;10548;47.504;8.248;2024-03-06T14:18:30;6.70;;;5.63;;
20776;SDS011;10548;47.504;8.248;2024-03-06T14:20:57;8.97;;;7.07;;
20776;SDS011;10548;47.504;8.248;2024-03-06T14:23:25;17.73;;;12.37;;
20776;SDS011;10548;47.504;8.248;2024-03-06T14:25:53;11.67;;;8.50;;
20776;SDS011;10548;47.504;8.248;2024-03-06T14:28:21;12.17;;;9.23;;
20776;SDS011;10548;47.504;8.248;2024-03-06T14:30:48;13.07;;;9.07;;
20776;SDS011;10548;47.504;8.248;2024-03-06T14:33:16;10.63;;;8.10;;
20776;SDS011;10548;47.504;8.248;2024-03-06T14:35:44;7.67;;;6.23;;
20776;SDS011;10548;47.504;8.248;2024-03-06T14:38:12;7.07;;;5.57;;
20776;SDS011;10548;47.504;8.248;2024-03-06T14:40:40;7.57;;;5.90;;
20776;SDS011;10548;47.504;8.248;2024-03-06T14:43:08;6.63;;;5.43;;
20776;SDS011;10548;47.504;8.248;2024-03-06T14:45:36;7.33;;;5.57;;
20776;SDS011;10548;47.504;8.248;2024-03-06T14:48:09;6.40;;;5.17;;
20776;SDS011;10548;47.504;8.248;2024-03-06T14:50:37;8.70;;;7.07;;
20776;SDS011;10548;47.504;8.248;2024-03-06T14:53:04;7.10;;;6.20;;
20776;SDS011;10548;47.504;8.248;2024-03-06T14:55:32;6.63;;;5.20;;
20776;SDS011;10548;47.504;8.248;2024-03-06T14:58:00;8.13;;;6.83;;
20776;SDS011;10548;47.504;8.248;2024-03-06T15:00:29;6.93;;;5.83;;
20776;SDS011;10548;47.504;8.248;2024-03-06T15:02:58;8.80;;;5.50;;